VTPH/HHQ METAR and TAF weather

Enter ICAO airport designator
Station Type Date Time Source
VTPH METAR 2020/07/02 11:00 UTC NOAA

VTPH 021100Z 26006KT 220V300 9999 SCT035 BKN100 32/22 Q1004 NOSIG


Station Type Date Time Source
VTPH Decoded METAR 2020/07/02 11:00 UTC NOAA

Hua Hin, Thailand (VTPH) 12-35N 099-57E 6M
Jul 02, 2020 - 07:00 AM EDT / 2020.07.02 1100 UTC
Wind: from the W (260 degrees) at 7 MPH (6 KT) (direction variable):0
Visibility: greater than 7 mile(s):0
Sky conditions: mostly cloudy
Temperature: 89 F (32 C)
Heat index: 95.0 F (35.0 C):1
Dew Point: 71 F (22 C)
Relative Humidity: 55%
Pressure (altimeter): 29.65 in. Hg (1004 hPa)
ob: VTPH 021100Z 26006KT 220V300 9999 SCT035 BKN100 32/22 Q1004 NOSIG
cycle: 11

Station Type Date Time Source
VTPH TAF 2020/07/02 18:00 UTC NOAA

TAF VTPH 021700Z 0218/0318 24005KT 9999 FEW020 SCT100
BECMG 0220/0222 00000KT
BECMG 0300/0302 24008KT
TEMPO 0307/0313 24010G25KT 4000 TSRA FEW018CB SCT030 BKN080

Example: see airport list